Time;durP1;ratioP1;P1;durP2;ratioP2;P2;SDS_P1;SDS_P2;PMS_P1;PMS_P2;Temp;Humidity;BMP_temperature;BMP_pressure;BME280_temperature;BME280_humidity;BME280_pressure;Samples;Min_cycle;Max_cycle;Signal;HPM_P1;HPM_P2
2021/06/17 00:02:09;;;;;;;106.85;62.08;;;20.50;64.00;;;;;;4959355;29;20034;-76
2021/06/17 00:04:35;;;;;;;96.93;55.28;;;20.50;63.30;;;;;;4961844;28;20020;-76
2021/06/17 00:07:01;;;;;;;103.35;55.53;;;20.50;64.10;;;;;;4959783;29;20034;-76
2021/06/17 00:09:27;;;;;;;93.90;53.63;;;20.50;62.90;;;;;;4959586;29;20055;-77
2021/06/17 00:12:00;;;;;;;93.35;53.60;;;20.50;62.90;;;;;;4960750;28;20034;-77
2021/06/17 00:14:27;;;;;;;79.70;46.53;;;20.50;63.30;;;;;;4961642;28;20027;-76
2021/06/17 00:16:53;;;;;;;89.00;50.45;;;20.50;62.80;;;;;;4959809;29;20039;-76
2021/06/17 00:19:18;;;;;;;88.13;49.40;;;20.50;62.40;;;;;;4961290;28;20058;-77
2021/06/17 00:21:44;;;;;;;77.22;45.28;;;20.50;62.30;;;;;;4959941;29;20035;-77
2021/06/17 00:24:10;;;;;;;80.30;47.10;;;20.50;62.10;;;;;;4952842;28;20039;-76
2021/06/17 00:26:36;;;;;;;86.97;47.22;;;20.50;62.00;;;;;;4955056;29;20086;-77
2021/06/17 00:29:02;;;;;;;72.95;43.53;;;20.50;62.50;;;;;;4961536;28;20024;-77
2021/06/17 00:31:28;;;;;;;80.93;45.47;;;20.50;62.10;;;;;;4959497;29;20101;-77
2021/06/17 00:33:53;;;;;;;85.03;43.53;;;20.50;62.50;;;;;;4960696;28;20114;-77
2021/06/17 00:36:19;;;;;;;76.88;42.92;;;20.40;64.00;;;;;;4959745;29;20038;-77
2021/06/17 00:38:45;;;;;;;80.53;44.33;;;20.40;63.50;;;;;;4951122;28;20015;-77
2021/06/17 00:41:11;;;;;;;73.13;42.78;;;20.40;63.50;;;;;;4969409;28;20035;-76
2021/06/17 00:43:37;;;;;;;73.45;41.08;;;20.40;63.90;;;;;;4960744;28;20027;-76
2021/06/17 00:46:03;;;;;;;70.85;42.00;;;20.30;63.80;;;;;;4959295;29;20482;-75
2021/06/17 00:48:29;;;;;;;73.78;42.13;;;20.30;62.70;;;;;;4960175;29;20106;-76
2021/06/17 00:50:58;;;;;;;70.75;40.55;;;20.30;64.50;;;;;;4960587;28;20034;-76
2021/06/17 00:53:30;;;;;;;62.85;36.80;;;20.30;65.00;;;;;;4959038;29;20059;-75
2021/06/17 00:55:57;;;;;;;70.22;39.28;;;20.30;64.40;;;;;;4956197;29;20042;-76
2021/06/17 00:58:23;;;;;;;66.05;37.95;;;20.20;64.80;;;;;;4952064;28;20036;-76
2021/06/17 01:00:49;;;;;;;65.07;38.13;;;20.20;63.40;;;;;;4955862;29;20040;-76
2021/06/17 01:03:16;;;;;;;68.20;39.42;;;20.30;63.20;;;;;;4960074;29;20066;-76
2021/06/17 01:05:42;;;;;;;60.35;35.15;;;20.30;63.90;;;;;;4960044;28;20114;-77
2021/06/17 01:08:15;;;;;;;66.35;39.20;;;20.20;63.70;;;;;;4959831;29;20020;-77
2021/06/17 01:11:16;;;;;;;69.75;40.03;;;20.20;63.00;;;;;;4960009;28;20106;-77
2021/06/17 01:13:50;;;;;;;69.10;38.63;;;20.20;63.60;;;;;;4943472;29;20074;-77
2021/06/17 01:16:28;;;;;;;72.03;37.17;;;20.20;65.20;;;;;;4960264;28;20046;-76
2021/06/17 01:19:01;;;;;;;81.45;41.45;;;20.20;64.50;;;;;;4959681;28;20031;-76
2021/06/17 01:21:44;;;;;;;73.10;38.47;;;20.20;65.30;;;;;;4960160;28;20062;-77
2021/06/17 01:24:35;;;;;;;66.03;35.72;;;20.10;64.10;;;;;;4958729;29;20027;-76
2021/06/17 01:27:00;;;;;;;59.78;34.10;;;20.10;63.50;;;;;;4956098;28;20035;-76
2021/06/17 01:29:29;;;;;;;59.45;31.80;;;20.10;64.40;;;;;;4959915;29;20099;-76
2021/06/17 01:31:55;;;;;;;57.33;31.10;;;20.00;64.60;;;;;;4947412;29;20395;-75
2021/06/17 01:34:24;;;;;;;52.85;29.13;;;20.10;65.00;;;;;;4959973;28;20034;-76
2021/06/17 01:37:00;;;;;;;57.47;31.42;;;20.00;65.00;;;;;;4959612;28;20039;-76
2021/06/17 01:39:28;;;;;;;57.63;32.05;;;20.00;66.00;;;;;;4947349;28;20076;-76
2021/06/17 01:41:55;;;;;;;49.08;28.15;;;19.90;65.10;;;;;;4959276;28;20047;-76
2021/06/17 01:44:22;;;;;;;49.03;27.92;;;19.90;64.00;;;;;;4959884;28;20034;-76
2021/06/17 01:46:50;;;;;;;49.03;26.05;;;19.90;64.30;;;;;;4946362;29;20023;-77
2021/06/17 01:49:17;;;;;;;43.85;26.73;;;19.90;64.80;;;;;;4951236;28;20030;-77
2021/06/17 01:51:44;;;;;;;53.85;27.25;;;19.90;65.40;;;;;;4959546;28;20508;-76
2021/06/17 01:54:20;;;;;;;50.85;25.95;;;19.90;65.10;;;;;;4959353;28;20482;-76
2021/06/17 01:56:51;;;;;;;52.85;28.60;;;19.80;64.20;;;;;;4958176;29;20027;-76
2021/06/17 01:59:19;;;;;;;43.60;25.25;;;19.80;65.50;;;;;;4941174;29;20443;-76
2021/06/17 02:01:46;;;;;;;46.63;24.05;;;19.80;65.10;;;;;;4957886;29;20054;-76
2021/06/17 02:04:13;;;;;;;44.42;22.77;;;19.70;64.20;;;;;;4959362;28;20027;-76
2021/06/17 02:06:42;;;;;;;52.42;25.35;;;19.60;67.60;;;;;;4959826;28;20034;-76
2021/06/17 02:09:09;;;;;;;44.33;23.33;;;19.70;64.50;;;;;;4958642;28;20402;-77
2021/06/17 02:11:36;;;;;;;46.58;22.95;;;19.70;64.30;;;;;;4958871;28;20027;-77
2021/06/17 02:14:03;;;;;;;51.33;26.40;;;19.70;63.90;;;;;;4959178;28;20033;-77
2021/06/17 02:16:32;;;;;;;41.13;20.63;;;19.70;64.20;;;;;;4958155;29;20027;-77
2021/06/17 02:18:59;;;;;;;47.80;23.63;;;19.70;63.50;;;;;;4958587;28;20192;-76
2021/06/17 02:21:28;;;;;;;42.70;21.75;;;19.70;65.40;;;;;;4959265;28;20038;-77
2021/06/17 02:23:57;;;;;;;43.50;22.40;;;19.70;63.90;;;;;;4947176;29;20560;-76
2021/06/17 02:26:26;;;;;;;33.83;17.98;;;19.70;64.00;;;;;;4957433;28;20394;-77
2021/06/17 02:28:53;;;;;;;42.00;22.35;;;19.60;65.30;;;;;;4959049;28;20027;-76
2021/06/17 02:31:24;;;;;;;43.67;20.25;;;19.70;66.00;;;;;;4959120;28;20043;-77
2021/06/17 02:33:50;;;;;;;40.13;20.50;;;19.60;64.60;;;;;;4959076;28;20039;-76
2021/06/17 02:36:22;;;;;;;37.28;19.98;;;19.50;66.40;;;;;;4959126;29;20031;-77
2021/06/17 02:38:49;;;;;;;45.65;21.38;;;19.50;67.20;;;;;;4954514;29;20106;-76
2021/06/17 02:41:19;;;;;;;38.10;18.70;;;19.40;67.80;;;;;;4953040;29;20447;-77
2021/06/17 02:43:47;;;;;;;38.65;18.17;;;19.40;66.40;;;;;;4959006;28;20027;-77
2021/06/17 02:46:15;;;;;;;36.92;17.60;;;19.40;65.20;;;;;;4957755;29;20122;-77
2021/06/17 02:48:41;;;;;;;33.70;17.58;;;19.40;65.10;;;;;;4949899;28;20024;-76
2021/06/17 02:51:07;;;;;;;39.22;18.50;;;19.40;65.40;;;;;;4957030;29;20024;-77
2021/06/17 02:53:33;;;;;;;39.33;18.42;;;19.40;67.50;;;;;;4957362;28;20031;-77
2021/06/17 02:56:02;;;;;;;40.85;18.25;;;19.40;66.70;;;;;;4946718;28;20107;-76
2021/06/17 02:58:52;;;;;;;38.42;17.30;;;19.40;66.00;;;;;;4958076;28;20035;-75
2021/06/17 03:01:52;;;;;;;34.65;17.42;;;19.30;65.90;;;;;;4958589;28;20027;-76
2021/06/17 03:04:32;;;;;;;36.10;16.92;;;19.30;66.60;;;;;;4957387;29;20035;-76
2021/06/17 03:06:59;;;;;;;35.47;17.42;;;19.30;66.50;;;;;;4958859;28;20015;-76
2021/06/17 03:09:56;;;;;;;32.75;16.58;;;19.30;67.00;;;;;;4957280;29;20027;-76
2021/06/17 03:12:27;;;;;;;31.80;16.75;;;19.30;66.40;;;;;;4941244;28;20039;-75
2021/06/17 03:14:56;;;;;;;41.05;18.40;;;19.30;67.60;;;;;;4947525;28;20036;-76
2021/06/17 03:17:23;;;;;;;32.60;16.08;;;19.20;68.00;;;;;;4957961;29;20048;-75
2021/06/17 03:19:54;;;;;;;35.33;17.30;;;19.20;67.30;;;;;;4958073;28;20133;-76
2021/06/17 03:22:24;;;;;;;37.15;17.40;;;19.20;67.70;;;;;;4958192;28;20078;-76
2021/06/17 03:24:52;;;;;;;30.80;15.30;;;19.20;67.00;;;;;;4960859;29;20105;-76
2021/06/17 03:27:19;;;;;;;34.22;16.55;;;19.20;66.50;;;;;;4949841;29;20051;-76
2021/06/17 03:29:50;;;;;;;36.65;17.40;;;19.20;65.70;;;;;;4962060;28;20168;-76
2021/06/17 03:32:17;;;;;;;32.53;16.98;;;19.20;65.50;;;;;;4962348;28;20114;-75
2021/06/17 03:34:45;;;;;;;40.05;17.83;;;19.20;66.10;;;;;;4961852;28;20118;-76
2021/06/17 03:37:13;;;;;;;35.50;17.30;;;19.20;65.80;;;;;;4961988;28;20031;-76
2021/06/17 03:39:42;;;;;;;33.17;16.75;;;19.20;66.50;;;;;;4948765;28;20042;-76
2021/06/17 03:42:10;;;;;;;35.55;16.50;;;19.20;66.20;;;;;;4961785;28;20075;-76
2021/06/17 03:44:37;;;;;;;41.58;19.98;;;19.20;65.70;;;;;;4961461;29;20066;-76
2021/06/17 03:47:05;;;;;;;35.55;17.20;;;19.30;65.90;;;;;;4961785;28;20027;-76
2021/06/17 03:49:32;;;;;;;34.78;17.10;;;19.20;65.40;;;;;;4957300;29;20042;-76
2021/06/17 03:51:58;;;;;;;35.15;18.67;;;19.20;64.70;;;;;;4961381;28;20055;-76
2021/06/17 03:54:28;;;;;;;37.70;18.40;;;19.20;65.20;;;;;;4961676;28;20035;-76
2021/06/17 03:56:55;;;;;;;31.55;15.07;;;19.30;65.30;;;;;;4961635;28;20023;-75
2021/06/17 03:59:31;;;;;;;35.70;17.30;;;19.20;67.40;;;;;;4948960;28;20106;-75
2021/06/17 04:01:57;;;;;;;34.38;17.60;;;19.30;65.50;;;;;;4961283;28;20066;-75
2021/06/17 04:04:24;;;;;;;36.20;17.48;;;19.30;65.70;;;;;;4960484;29;20067;-75
2021/06/17 04:06:57;;;;;;;34.10;17.15;;;19.20;66.50;;;;;;4961376;28;20035;-75
2021/06/17 04:09:28;;;;;;;33.03;16.95;;;19.30;66.10;;;;;;4960456;29;20421;-75
2021/06/17 04:11:59;;;;;;;36.90;17.98;;;19.20;65.90;;;;;;4961384;28;20026;-75
2021/06/17 04:14:30;;;;;;;40.28;18.38;;;19.20;66.90;;;;;;4960205;28;20019;-75
2021/06/17 04:16:56;;;;;;;35.25;17.00;;;19.20;67.90;;;;;;4960102;29;20039;-76
2021/06/17 04:19:26;;;;;;;32.20;17.13;;;19.20;66.20;;;;;;4960858;28;20062;-75
2021/06/17 04:21:56;;;;;;;36.65;19.58;;;19.20;67.30;;;;;;4959938;29;20118;-76
2021/06/17 04:24:23;;;;;;;35.45;17.95;;;19.20;69.40;;;;;;4959902;29;20027;-76
2021/06/17 04:26:54;;;;;;;34.10;19.50;;;19.20;68.40;;;;;;4960586;28;20098;-76
2021/06/17 04:29:21;;;;;;;33.92;17.70;;;19.20;68.20;;;;;;4960404;29;20034;-76
2021/06/17 04:31:52;;;;;;;32.40;15.90;;;19.10;67.50;;;;;;4961282;29;20090;-76
2021/06/17 04:34:19;;;;;;;36.13;16.73;;;19.20;67.00;;;;;;4959111;28;20098;-76
2021/06/17 04:36:47;;;;;;;32.92;16.90;;;19.10;67.20;;;;;;4959890;29;20062;-76
2021/06/17 04:39:14;;;;;;;37.75;17.25;;;19.10;67.80;;;;;;4959127;29;20027;-75
2021/06/17 04:41:42;;;;;;;34.08;18.05;;;19.10;67.90;;;;;;4960455;28;20035;-76
2021/06/17 04:44:09;;;;;;;29.63;16.10;;;19.10;68.70;;;;;;4960523;28;20030;-75
2021/06/17 04:46:36;;;;;;;28.65;15.20;;;19.10;68.50;;;;;;4960331;28;20035;-75
2021/06/17 04:49:03;;;;;;;32.72;16.45;;;19.10;67.70;;;;;;4959457;29;20019;-76
2021/06/17 04:51:36;;;;;;;24.98;15.05;;;19.10;67.40;;;;;;4959268;29;20027;-75
2021/06/17 04:54:05;;;;;;;29.73;15.93;;;19.10;68.70;;;;;;4947139;29;20042;-75
2021/06/17 04:56:30;;;;;;;30.48;15.77;;;19.10;68.90;;;;;;4958899;28;20504;-75
2021/06/17 04:58:56;;;;;;;28.55;15.15;;;19.00;71.30;;;;;;4953778;29;20105;-76
2021/06/17 05:01:22;;;;;;;24.42;13.20;;;19.00;69.60;;;;;;4959946;28;20043;-74
2021/06/17 05:03:48;;;;;;;29.75;14.52;;;19.00;68.20;;;;;;4960493;29;20020;-79
2021/06/17 05:06:17;;;;;;;22.27;13.00;;;19.00;68.90;;;;;;4959916;28;20043;-78
2021/06/17 05:11:28;;;;;;;22.83;12.52;;;19.00;67.70;;;;;;4954515;29;20042;-76
2021/06/17 05:13:55;;;;;;;22.17;12.38;;;19.00;67.50;;;;;;4960625;28;20445;-75
2021/06/17 05:16:21;;;;;;;22.95;12.32;;;19.10;67.20;;;;;;4959231;28;20027;-76
2021/06/17 05:18:47;;;;;;;23.58;12.90;;;19.00;68.50;;;;;;4958583;29;20544;-72
2021/06/17 05:21:13;;;;;;;22.35;12.77;;;19.00;68.60;;;;;;4958196;29;20490;-78
2021/06/17 05:23:40;;;;;;;20.88;11.88;;;19.10;67.30;;;;;;4958385;29;20501;-75
2021/06/17 05:26:07;;;;;;;19.63;11.65;;;19.00;67.40;;;;;;4959246;28;20484;-73
2021/06/17 05:28:33;;;;;;;20.75;12.27;;;19.10;67.70;;;;;;4959664;28;20030;-75
2021/06/17 05:31:01;;;;;;;20.60;11.05;;;19.10;67.50;;;;;;4959124;28;20494;-74
2021/06/17 05:33:30;;;;;;;21.90;11.23;;;19.00;68.50;;;;;;4954253;29;20039;-76
2021/06/17 05:35:55;;;;;;;19.52;11.63;;;19.10;67.50;;;;;;4960115;28;20055;-75
2021/06/17 05:38:23;;;;;;;19.55;11.52;;;19.10;68.10;;;;;;4959076;29;20038;-70
2021/06/17 05:40:49;;;;;;;15.05;9.52;;;19.00;67.80;;;;;;4959479;28;20027;-71
2021/06/17 05:43:15;;;;;;;20.67;11.05;;;19.10;67.70;;;;;;4941633;28;20039;-71
2021/06/17 05:45:43;;;;;;;21.23;11.30;;;19.10;67.50;;;;;;4963540;28;20023;-71
2021/06/17 05:48:09;;;;;;;18.77;9.18;;;19.10;67.20;;;;;;4959246;28;20510;-71
2021/06/17 05:50:35;;;;;;;18.60;10.82;;;19.10;67.40;;;;;;4958386;29;20027;-71
2021/06/17 05:53:01;;;;;;;21.65;12.48;;;19.10;67.80;;;;;;4959105;28;20023;-73
2021/06/17 05:55:27;;;;;;;15.45;10.50;;;19.10;68.70;;;;;;4959388;29;20031;-72
2021/06/17 05:57:53;;;;;;;19.27;11.23;;;19.10;68.80;;;;;;4954866;28;20036;-73
2021/06/17 06:00:19;;;;;;;23.27;10.95;;;19.10;68.10;;;;;;4953074;29;20041;-74
2021/06/17 06:02:45;;;;;;;17.38;9.85;;;19.10;67.80;;;;;;4958288;28;20027;-73
2021/06/17 06:05:11;;;;;;;19.83;11.68;;;19.10;67.70;;;;;;4959140;28;20077;-73
2021/06/17 06:07:38;;;;;;;14.57;9.77;;;19.10;68.00;;;;;;4959351;28;20018;-74
2021/06/17 06:10:06;;;;;;;18.98;10.27;;;19.10;68.50;;;;;;4959292;28;20058;-74
2021/06/17 06:12:32;;;;;;;21.00;10.15;;;19.10;68.00;;;;;;4957947;29;20387;-74
2021/06/17 06:14:58;;;;;;;21.63;11.30;;;19.20;69.10;;;;;;4946448;28;20042;-74
2021/06/17 06:17:24;;;;;;;17.35;11.23;;;19.10;68.90;;;;;;4957944;29;20113;-74
2021/06/17 06:19:50;;;;;;;17.17;9.98;;;19.10;68.10;;;;;;4959287;28;20105;-73
2021/06/17 06:22:15;;;;;;;20.95;11.13;;;19.10;68.30;;;;;;4959333;29;20071;-74
2021/06/17 06:24:41;;;;;;;17.58;9.75;;;19.20;68.80;;;;;;4958972;28;20050;-74
2021/06/17 06:27:09;;;;;;;21.02;9.60;;;19.20;69.30;;;;;;4959000;28;20030;-74
2021/06/17 06:29:34;;;;;;;18.52;10.05;;;19.10;69.20;;;;;;4959110;28;20023;-74
2021/06/17 06:32:00;;;;;;;19.80;10.30;;;19.20;69.00;;;;;;4957944;29;20034;-74
2021/06/17 06:34:26;;;;;;;20.33;10.75;;;19.20;68.30;;;;;;4954231;29;20028;-72
2021/06/17 06:36:53;;;;;;;20.67;11.57;;;19.20;68.50;;;;;;4954480;29;20038;-72
2021/06/17 06:39:19;;;;;;;51.05;33.00;;;19.20;69.00;;;;;;4959053;28;20042;-75
2021/06/17 06:41:45;;;;;;;26.67;17.70;;;19.20;68.50;;;;;;4957313;29;20027;-75
2021/06/17 06:44:12;;;;;;;21.05;14.13;;;19.20;68.40;;;;;;4957787;29;20482;-75
2021/06/17 06:46:39;;;;;;;18.70;11.57;;;19.20;68.00;;;;;;4957667;29;20074;-71
2021/06/17 06:49:05;;;;;;;15.25;9.57;;;19.20;68.20;;;;;;4962831;28;20031;-72
2021/06/17 06:51:35;;;;;;;19.17;8.95;;;19.20;68.00;;;;;;4960185;28;20063;-71
2021/06/17 06:54:02;;;;;;;14.55;9.57;;;19.20;68.00;;;;;;4955636;29;20035;-73
2021/06/17 06:56:28;;;;;;;18.58;9.70;;;19.20;68.20;;;;;;4947794;28;20027;-74
2021/06/17 06:58:54;;;;;;;17.33;10.02;;;19.20;68.50;;;;;;4957094;28;20060;-72
2021/06/17 07:01:20;;;;;;;12.95;8.82;;;19.20;68.40;;;;;;4962242;28;20027;-72
2021/06/17 07:03:46;;;;;;;13.73;8.10;;;19.20;69.40;;;;;;4962193;28;20054;-71
2021/06/17 07:06:12;;;;;;;14.00;8.13;;;19.20;69.00;;;;;;4955534;29;20023;-72
2021/06/17 07:08:37;;;;;;;14.60;8.50;;;19.20;68.90;;;;;;4960948;29;20031;-71
2021/06/17 07:11:03;;;;;;;10.82;7.07;;;19.20;69.30;;;;;;4960827;29;20114;-71
2021/06/17 07:13:29;;;;;;;11.68;7.78;;;19.20;70.40;;;;;;4962443;28;20414;-71
2021/06/17 07:15:55;;;;;;;13.13;7.13;;;19.20;69.70;;;;;;4962341;29;20028;-71
2021/06/17 07:18:21;;;;;;;14.60;7.30;;;19.10;72.40;;;;;;4950981;29;20032;-72
2021/06/17 07:20:47;;;;;;;13.77;7.85;;;19.10;70.20;;;;;;4959675;29;20104;-73
2021/06/17 07:23:14;;;;;;;10.48;7.10;;;19.10;69.90;;;;;;4959630;28;20035;-72
2021/06/17 07:25:41;;;;;;;12.63;6.40;;;19.10;69.30;;;;;;4948981;28;20028;-72
2021/06/17 07:28:07;;;;;;;12.52;7.32;;;19.10;70.50;;;;;;4962201;28;20034;-72
2021/06/17 07:30:33;;;;;;;13.40;7.78;;;19.10;70.80;;;;;;4962106;28;20023;-71
2021/06/17 07:32:59;;;;;;;10.18;6.40;;;19.00;72.60;;;;;;4961738;29;20031;-71
2021/06/17 07:35:25;;;;;;;14.75;6.85;;;19.00;70.90;;;;;;4949039;28;20031;-71
2021/06/17 07:37:51;;;;;;;10.95;7.00;;;19.00;71.10;;;;;;4962175;29;20070;-71
2021/06/17 07:40:17;;;;;;;9.77;5.57;;;19.00;70.30;;;;;;4961561;29;20024;-71
2021/06/17 07:42:43;;;;;;;10.93;6.32;;;19.00;69.90;;;;;;4961744;28;20047;-72
2021/06/17 07:45:11;;;;;;;11.10;6.18;;;19.00;70.90;;;;;;4961557;28;20379;-71
2021/06/17 07:47:38;;;;;;;9.65;5.80;;;19.00;70.90;;;;;;4960047;29;20027;-72
2021/06/17 07:50:06;;;;;;;11.40;7.20;;;19.00;70.80;;;;;;4960523;29;20582;-72
2021/06/17 07:52:32;;;;;;;11.32;6.57;;;19.00;70.90;;;;;;4961747;28;20102;-72
2021/06/17 07:54:59;;;;;;;10.40;6.03;;;19.00;71.40;;;;;;4949997;29;20061;-71
2021/06/17 07:57:25;;;;;;;11.65;6.75;;;19.00;70.60;;;;;;4960400;28;20028;-72
2021/06/17 07:59:50;;;;;;;11.27;6.70;;;19.00;71.60;;;;;;4959857;29;20516;-72
2021/06/17 08:02:16;;;;;;;8.85;5.70;;;19.00;70.60;;;;;;4961220;28;20058;-72
2021/06/17 08:04:42;;;;;;;10.10;6.07;;;19.00;69.70;;;;;;4961421;29;20027;-72
2021/06/17 08:07:08;;;;;;;8.40;5.22;;;19.00;71.50;;;;;;4961239;28;20107;-72
2021/06/17 08:09:34;;;;;;;9.48;4.53;;;18.90;71.10;;;;;;4960638;28;20102;-72
2021/06/17 08:12:00;;;;;;;7.95;4.85;;;18.90;70.80;;;;;;4961174;28;20027;-73
2021/06/17 08:14:27;;;;;;;8.05;5.60;;;18.90;72.60;;;;;;4961503;29;20031;-72
2021/06/17 08:16:54;;;;;;;7.70;5.00;;;18.90;70.70;;;;;;4961434;29;20057;-72
2021/06/17 08:19:27;;;;;;;8.13;5.05;;;18.90;70.00;;;;;;4961126;28;20031;-72
2021/06/17 08:21:53;;;;;;;7.63;4.57;;;18.90;70.60;;;;;;4955370;28;20032;-72
2021/06/17 08:24:19;;;;;;;8.43;5.25;;;19.00;70.40;;;;;;4961208;29;20481;-73
2021/06/17 08:26:46;;;;;;;9.75;4.70;;;19.00;69.90;;;;;;4960821;28;20020;-74
2021/06/17 08:29:13;;;;;;;9.95;5.57;;;19.10;70.10;;;;;;4960900;29;20030;-74
2021/06/17 08:31:40;;;;;;;8.63;5.30;;;19.10;71.10;;;;;;4960964;29;20031;-74
2021/06/17 08:34:07;;;;;;;7.47;4.47;;;19.10;70.70;;;;;;4955200;28;20024;-74
2021/06/17 08:36:33;;;;;;;9.40;4.82;;;19.10;70.60;;;;;;4953810;29;20035;-74
2021/06/17 08:38:59;;;;;;;7.47;4.40;;;19.10;70.20;;;;;;4959383;29;20034;-73
2021/06/17 08:41:25;;;;;;;7.95;4.38;;;19.20;72.40;;;;;;4959288;29;20037;-73
2021/06/17 08:43:51;;;;;;;6.85;4.15;;;19.20;72.60;;;;;;4959187;29;20051;-73
2021/06/17 08:46:17;;;;;;;5.30;3.60;;;19.10;71.30;;;;;;4959228;29;20047;-74
2021/06/17 08:48:43;;;;;;;4.82;3.15;;;19.10;70.90;;;;;;4959748;28;20047;-73
2021/06/17 08:51:10;;;;;;;5.72;3.20;;;19.10;70.70;;;;;;4960386;28;20031;-73
2021/06/17 08:53:36;;;;;;;4.25;2.65;;;19.10;70.10;;;;;;4959245;29;20071;-74
2021/06/17 08:56:02;;;;;;;6.22;2.90;;;19.20;70.50;;;;;;4955061;29;20059;-73
2021/06/17 08:58:29;;;;;;;6.10;2.78;;;19.20;70.30;;;;;;4950509;29;20019;-73
2021/06/17 09:00:55;;;;;;;5.03;3.20;;;19.20;70.20;;;;;;4960239;28;20082;-73
2021/06/17 09:03:21;;;;;;;6.15;3.45;;;19.20;69.90;;;;;;4960175;28;20031;-74
2021/06/17 09:05:53;;;;;;;5.18;3.38;;;19.20;69.90;;;;;;4960228;28;20042;-73
2021/06/17 09:08:26;;;;;;;5.85;3.13;;;19.30;70.50;;;;;;4960480;28;20426;-73
2021/06/17 09:10:52;;;;;;;6.65;3.00;;;19.40;70.80;;;;;;4957831;28;20082;-74
2021/06/17 09:13:18;;;;;;;5.25;3.30;;;19.40;70.80;;;;;;4948252;29;20517;-72
2021/06/17 09:15:51;;;;;;;4.82;2.83;;;19.60;70.80;;;;;;4953732;28;20372;-73
2021/06/17 09:18:32;;;;;;;6.00;2.53;;;19.60;70.90;;;;;;4947202;29;20023;-74
2021/06/17 09:21:04;;;;;;;5.57;2.65;;;19.70;70.70;;;;;;4950066;29;20040;-74
2021/06/17 09:23:34;;;;;;;4.97;2.65;;;19.70;70.30;;;;;;4947693;29;20060;-73
2021/06/17 09:26:17;;;;;;;3.80;2.10;;;19.60;70.00;;;;;;4952937;29;20039;-73
2021/06/17 09:28:45;;;;;;;4.57;2.45;;;19.60;69.60;;;;;;4953883;29;20574;-73
2021/06/17 09:31:20;;;;;;;4.57;2.30;;;19.60;69.60;;;;;;4947566;29;20034;-73
2021/06/17 09:33:48;;;;;;;4.00;2.28;;;19.60;69.70;;;;;;4949389;29;20443;-74
2021/06/17 09:36:14;;;;;;;4.63;2.35;;;19.60;69.30;;;;;;4948559;29;20023;-73
2021/06/17 09:38:55;;;;;;;4.25;2.05;;;19.50;70.50;;;;;;4945155;28;20478;-74
2021/06/17 09:41:42;;;;;;;4.70;2.38;;;19.50;69.80;;;;;;4951935;28;20109;-73
2021/06/17 09:44:47;;;;;;;5.72;2.45;;;19.40;71.00;;;;;;4932991;29;20028;-72
2021/06/17 09:47:18;;;;;;;4.75;2.55;;;19.40;71.40;;;;;;4899294;29;20104;-72
2021/06/17 09:49:46;;;;;;;5.33;2.80;;;19.40;70.80;;;;;;4887907;29;20507;-73
2021/06/17 09:52:13;;;;;;;5.18;3.47;;;19.30;70.90;;;;;;4920977;29;20032;-73
2021/06/17 09:54:40;;;;;;;5.07;3.03;;;19.30;70.90;;;;;;4940296;29;20026;-74
2021/06/17 09:57:12;;;;;;;8.18;3.80;;;19.30;70.50;;;;;;4939952;29;20111;-74
2021/06/17 09:59:40;;;;;;;6.53;3.97;;;19.40;70.70;;;;;;4940155;29;20054;-72
2021/06/17 10:02:09;;;;;;;5.93;3.78;;;19.40;70.50;;;;;;4940285;29;20036;-72
2021/06/17 10:04:35;;;;;;;7.72;4.22;;;19.50;70.40;;;;;;4940280;29;20024;-73
2021/06/17 10:07:02;;;;;;;7.47;4.35;;;19.50;71.10;;;;;;4940437;29;20031;-73
2021/06/17 10:09:28;;;;;;;7.57;3.90;;;19.60;70.50;;;;;;4938816;29;20023;-73
2021/06/17 10:11:54;;;;;;;5.88;3.33;;;19.60;69.90;;;;;;4938497;29;20055;-72
2021/06/17 10:14:20;;;;;;;5.40;3.40;;;19.60;69.70;;;;;;4940382;29;20027;-72
2021/06/17 10:16:46;;;;;;;5.20;2.78;;;19.60;69.50;;;;;;4940097;29;20032;-72
2021/06/17 10:19:14;;;;;;;6.72;3.47;;;19.60;69.20;;;;;;4940036;29;20059;-73
2021/06/17 10:21:41;;;;;;;5.50;3.47;;;19.60;69.50;;;;;;4939878;29;20036;-72
2021/06/17 10:24:22;;;;;;;5.80;3.22;;;19.50;69.40;;;;;;4939997;29;20498;-72
2021/06/17 10:26:51;;;;;;;7.05;3.75;;;19.50;70.00;;;;;;4927281;29;20052;-72
2021/06/17 10:29:40;;;;;;;4.65;2.60;;;19.40;71.40;;;;;;4939985;29;20020;-72
2021/06/17 10:32:07;;;;;;;6.93;2.92;;;19.40;70.30;;;;;;4939582;29;20028;-73
2021/06/17 10:34:40;;;;;;;5.70;3.00;;;19.40;71.30;;;;;;4937378;29;20032;-74
2021/06/17 10:37:25;;;;;;;5.07;2.42;;;19.40;70.40;;;;;;4939880;29;20032;-72
2021/06/17 10:40:04;;;;;;;5.15;3.03;;;19.30;70.40;;;;;;4939699;29;20499;-73
2021/06/17 10:42:37;;;;;;;5.57;3.33;;;19.30;70.10;;;;;;4948133;29;20043;-73
2021/06/17 10:45:33;;;;;;;6.40;3.92;;;19.30;69.90;;;;;;4945796;28;20030;-73
2021/06/17 10:48:01;;;;;;;5.43;3.90;;;19.30;70.10;;;;;;4958652;28;20106;-75
2021/06/17 10:51:09;;;;;;;6.10;4.30;;;19.30;69.90;;;;;;4957490;29;20106;-75
2021/06/17 10:53:35;;;;;;;6.40;4.47;;;19.30;69.80;;;;;;4926075;29;20035;-74
2021/06/17 10:56:16;;;;;;;7.63;4.25;;;19.30;69.50;;;;;;4954614;28;20032;-74
2021/06/17 10:58:42;;;;;;;8.63;5.45;;;19.30;70.60;;;;;;4950552;29;20028;-74
2021/06/17 11:01:41;;;;;;;7.35;4.75;;;19.30;70.20;;;;;;4958594;28;20497;-74
2021/06/17 11:04:17;;;;;;;6.80;4.55;;;19.40;70.30;;;;;;4958486;28;20200;-74
2021/06/17 11:06:50;;;;;;;7.45;5.10;;;19.30;71.40;;;;;;4947357;29;20088;-74
2021/06/17 11:09:37;;;;;;;8.20;4.15;;;19.40;72.20;;;;;;4957088;29;20027;-74
2021/06/17 11:12:19;;;;;;;5.75;3.92;;;19.40;71.30;;;;;;4958359;28;20028;-74
2021/06/17 11:14:57;;;;;;;9.25;4.68;;;19.40;70.50;;;;;;4951545;29;20502;-73
2021/06/17 11:17:35;;;;;;;9.32;4.40;;;19.40;71.10;;;;;;4958225;28;20035;-74
2021/06/17 11:20:11;;;;;;;8.02;4.70;;;19.40;71.30;;;;;;4958661;28;20038;-74
2021/06/17 11:22:44;;;;;;;7.72;4.28;;;19.50;71.20;;;;;;4957465;29;20037;-74
2021/06/17 11:25:12;;;;;;;8.13;4.50;;;19.60;71.20;;;;;;4958146;28;20031;-74
2021/06/17 11:27:58;;;;;;;10.15;5.68;;;19.60;71.10;;;;;;4958550;28;20023;-75
2021/06/17 11:30:42;;;;;;;6.25;4.57;;;19.70;71.70;;;;;;4958348;28;20027;-75
2021/06/17 11:33:20;;;;;;;6.18;4.32;;;19.80;72.70;;;;;;4947953;28;20035;-75
2021/06/17 11:35:50;;;;;;;8.35;3.50;;;20.00;73.60;;;;;;4945121;29;20024;-73
2021/06/17 11:38:23;;;;;;;6.97;3.80;;;20.10;73.60;;;;;;4958591;29;20034;-74
2021/06/17 11:40:49;;;;;;;5.97;3.70;;;20.10;71.90;;;;;;4945439;29;20027;-75
2021/06/17 11:43:22;;;;;;;5.28;3.08;;;20.10;71.30;;;;;;4953145;28;20561;-74
2021/06/17 11:45:48;;;;;;;5.65;3.38;;;20.10;70.90;;;;;;4961902;28;20375;-74
2021/06/17 11:48:14;;;;;;;5.75;3.00;;;20.10;71.00;;;;;;4961478;28;20046;-75
2021/06/17 11:50:47;;;;;;;8.10;3.10;;;20.00;70.30;;;;;;4960460;29;20031;-75
2021/06/17 11:53:21;;;;;;;6.40;3.15;;;19.90;70.00;;;;;;4961644;28;20511;-76
2021/06/17 11:55:48;;;;;;;6.07;3.33;;;19.90;70.30;;;;;;4959851;28;20467;-75
2021/06/17 11:58:14;;;;;;;7.18;3.05;;;19.80;70.40;;;;;;4957564;29;20102;-75
2021/06/17 12:00:40;;;;;;;6.38;3.42;;;19.80;70.70;;;;;;4961694;28;20023;-75
2021/06/17 12:03:20;;;;;;;5.72;3.50;;;19.80;71.20;;;;;;4961197;29;20023;-75
2021/06/17 12:05:47;;;;;;;6.85;3.63;;;19.80;70.70;;;;;;4961322;28;20023;-75
2021/06/17 12:08:13;;;;;;;6.43;3.55;;;19.80;71.60;;;;;;4960596;29;20023;-75
2021/06/17 12:10:41;;;;;;;6.95;3.08;;;19.70;70.70;;;;;;4960822;28;20449;-75
2021/06/17 12:13:10;;;;;;;6.18;3.28;;;19.70;70.50;;;;;;4961521;28;20015;-75
2021/06/17 12:15:42;;;;;;;7.18;3.63;;;19.70;70.30;;;;;;4948243;28;20032;-75
2021/06/17 12:18:14;;;;;;;6.88;3.20;;;19.70;71.90;;;;;;4961400;28;20020;-75
2021/06/17 12:20:41;;;;;;;6.15;3.45;;;19.70;70.50;;;;;;4961157;28;20030;-75
2021/06/17 12:23:30;;;;;;;5.05;2.80;;;19.70;71.50;;;;;;4958567;28;20102;-75
2021/06/17 12:26:00;;;;;;;6.63;3.20;;;19.80;70.50;;;;;;4949198;29;20058;-76
2021/06/17 12:28:27;;;;;;;6.88;3.13;;;19.80;70.30;;;;;;4961107;28;20016;-75
2021/06/17 12:30:55;;;;;;;9.05;3.97;;;19.80;70.90;;;;;;4961106;28;20027;-75
2021/06/17 12:33:24;;;;;;;6.05;3.40;;;19.80;70.60;;;;;;4960393;28;20030;-75
2021/06/17 12:36:12;;;;;;;6.25;3.38;;;19.80;70.90;;;;;;4948066;28;20031;-76
2021/06/17 12:38:39;;;;;;;5.65;3.22;;;19.90;72.20;;;;;;4960907;28;20505;-74
2021/06/17 12:41:19;;;;;;;6.30;3.70;;;19.80;71.00;;;;;;4959638;29;20034;-75
2021/06/17 12:43:47;;;;;;;7.15;4.03;;;19.80;70.90;;;;;;4960643;28;20047;-74
2021/06/17 12:46:14;;;;;;;5.95;3.70;;;19.80;70.50;;;;;;4960850;28;20028;-74
2021/06/17 12:54:26;;;;;;;6.18;3.08;;;19.70;70.70;;;;;;4960782;29;20065;-73
2021/06/17 12:56:53;;;;;;;7.28;3.20;;;19.60;70.90;;;;;;4948352;29;20093;-74